sensor_id;sensor_type;location;lat;lon;timestamp;pressure;altitude;pressure_sealevel;temperature;humidity
23677;BME280;31493;49.058;12.190;2023-03-03T00:00:40;96087.00;;;1.06;99.77
23677;BME280;31493;49.058;12.190;2023-03-03T00:03:08;96091.25;;;1.06;100.00
23677;BME280;31493;49.058;12.190;2023-03-03T00:05:38;96098.97;;;1.04;99.84
23677;BME280;31493;49.058;12.190;2023-03-03T00:08:05;96091.41;;;1.01;100.00
23677;BME280;31493;49.058;12.190;2023-03-03T00:10:33;96099.97;;;0.99;100.00
23677;BME280;31493;49.058;12.190;2023-03-03T00:13:00;96088.00;;;1.01;100.00
23677;BME280;31493;49.058;12.190;2023-03-03T00:15:29;96099.22;;;0.95;100.00
23677;BME280;31493;49.058;12.190;2023-03-03T00:17:57;96093.19;;;0.98;100.00
23677;BME280;31493;49.058;12.190;2023-03-03T00:20:31;96087.22;;;0.99;99.90
23677;BME280;31493;49.058;12.190;2023-03-03T00:23:12;96099.16;;;0.97;100.00
23677;BME280;31493;49.058;12.190;2023-03-03T00:25:43;96098.44;;;0.93;100.00
23677;BME280;31493;49.058;12.190;2023-03-03T00:28:21;96093.53;;;0.86;100.00
23677;BME280;31493;49.058;12.190;2023-03-03T00:30:48;96098.63;;;0.87;100.00
23677;BME280;31493;49.058;12.190;2023-03-03T00:33:24;96088.31;;;0.90;100.00
23677;BME280;31493;49.058;12.190;2023-03-03T00:35:54;96083.41;;;0.84;100.00
23677;BME280;31493;49.058;12.190;2023-03-03T00:38:22;96089.50;;;0.80;100.00
23677;BME280;31493;49.058;12.190;2023-03-03T00:40:50;96097.09;;;0.82;99.94
23677;BME280;31493;49.058;12.190;2023-03-03T00:43:20;96096.38;;;0.76;100.00
23677;BME280;31493;49.058;12.190;2023-03-03T00:45:48;96098.16;;;0.74;99.92
23677;BME280;31493;49.058;12.190;2023-03-03T00:48:24;96091.34;;;0.73;100.00
23677;BME280;31493;49.058;12.190;2023-03-03T00:50:53;96096.38;;;0.76;99.76
23677;BME280;31493;49.058;12.190;2023-03-03T00:53:21;96098.81;;;0.81;99.27
23677;BME280;31493;49.058;12.190;2023-03-03T00:55:51;96093.88;;;0.75;99.15
23677;BME280;31493;49.058;12.190;2023-03-03T00:58:19;96099.94;;;0.71;99.34
23677;BME280;31493;49.058;12.190;2023-03-03T01:00:47;96101.59;;;0.72;99.26
23677;BME280;31493;49.058;12.190;2023-03-03T01:03:16;96090.56;;;0.71;99.40
23677;BME280;31493;49.058;12.190;2023-03-03T01:05:45;96088.91;;;0.70;98.99
23677;BME280;31493;49.058;12.190;2023-03-03T01:08:12;96086.44;;;0.67;98.82
23677;BME280;31493;49.058;12.190;2023-03-03T01:10:41;96083.06;;;0.67;98.47
23677;BME280;31493;49.058;12.190;2023-03-03T01:13:11;96086.44;;;0.67;98.34
23677;BME280;31493;49.058;12.190;2023-03-03T01:15:38;96070.13;;;0.74;97.64
23677;BME280;31493;49.058;12.190;2023-03-03T01:18:06;96072.91;;;0.65;97.80
23677;BME280;31493;49.058;12.190;2023-03-03T01:20:33;96076.41;;;0.61;97.62
23677;BME280;31493;49.058;12.190;2023-03-03T01:23:00;96083.06;;;0.67;97.60
23677;BME280;31493;49.058;12.190;2023-03-03T01:25:27;96075.69;;;0.58;97.79
23677;BME280;31493;49.058;12.190;2023-03-03T01:27:55;96078.41;;;0.51;98.10
23677;BME280;31493;49.058;12.190;2023-03-03T01:30:24;96078.38;;;0.53;97.95
23677;BME280;31493;49.058;12.190;2023-03-03T01:32:51;96084.94;;;0.60;97.81
23677;BME280;31493;49.058;12.190;2023-03-03T01:35:18;96067.28;;;0.54;97.74
23677;BME280;31493;49.058;12.190;2023-03-03T01:37:45;96073.16;;;0.58;97.23
23677;BME280;31493;49.058;12.190;2023-03-03T01:40:15;96075.56;;;0.62;97.11
23677;BME280;31493;49.058;12.190;2023-03-03T01:42:42;96080.97;;;0.51;97.15
23677;BME280;31493;49.058;12.190;2023-03-03T01:45:16;96070.00;;;0.48;97.69
23677;BME280;31493;49.058;12.190;2023-03-03T01:47:50;96071.56;;;0.53;97.82
23677;BME280;31493;49.058;12.190;2023-03-03T01:50:26;96070.72;;;0.53;97.13
23677;BME280;31493;49.058;12.190;2023-03-03T01:52:56;96073.19;;;0.56;96.63
23677;BME280;31493;49.058;12.190;2023-03-03T01:55:28;96066.56;;;0.49;96.97
23677;BME280;31493;49.058;12.190;2023-03-03T01:57:58;96072.56;;;0.48;96.39
23677;BME280;31493;49.058;12.190;2023-03-03T02:00:28;96074.28;;;0.47;96.65
23677;BME280;31493;49.058;12.190;2023-03-03T02:02:57;96074.38;;;0.43;96.86
23677;BME280;31493;49.058;12.190;2023-03-03T02:05:24;96071.94;;;0.40;97.35
23677;BME280;31493;49.058;12.190;2023-03-03T02:07:52;96067.97;;;0.30;97.55
23677;BME280;31493;49.058;12.190;2023-03-03T02:10:20;96068.50;;;0.41;98.29
23677;BME280;31493;49.058;12.190;2023-03-03T02:12:49;96062.72;;;0.36;97.25
23677;BME280;31493;49.058;12.190;2023-03-03T02:15:19;96082.25;;;0.35;97.16
23677;BME280;31493;49.058;12.190;2023-03-03T02:17:47;96067.69;;;0.40;96.42
23677;BME280;31493;49.058;12.190;2023-03-03T02:20:23;96075.50;;;0.34;97.21
23677;BME280;31493;49.058;12.190;2023-03-03T02:22:57;96065.53;;;0.26;97.21
23677;BME280;31493;49.058;12.190;2023-03-03T02:25:33;96072.34;;;0.24;97.36
23677;BME280;31493;49.058;12.190;2023-03-03T02:28:03;96072.25;;;0.29;97.05
23677;BME280;31493;49.058;12.190;2023-03-03T02:30:36;96075.72;;;0.26;96.77
23677;BME280;31493;49.058;12.190;2023-03-03T02:33:04;96092.28;;;0.10;97.47
23677;BME280;31493;49.058;12.190;2023-03-03T02:35:33;96085.06;;;-0.07;98.81
23677;BME280;31493;49.058;12.190;2023-03-03T02:38:07;96084.22;;;-0.06;99.40
23677;BME280;31493;49.058;12.190;2023-03-03T02:40:39;96079.34;;;-0.15;99.55
23677;BME280;31493;49.058;12.190;2023-03-03T02:43:10;96089.09;;;-0.31;100.00
23677;BME280;31493;49.058;12.190;2023-03-03T02:45:42;96089.25;;;-0.38;100.00
23677;BME280;31493;49.058;12.190;2023-03-03T02:48:09;96082.88;;;-0.20;100.00
23677;BME280;31493;49.058;12.190;2023-03-03T02:50:36;96087.22;;;-0.24;100.00
23677;BME280;31493;49.058;12.190;2023-03-03T02:53:03;96070.41;;;-0.30;100.00
23677;BME280;31493;49.058;12.190;2023-03-03T02:55:30;96087.28;;;-0.27;100.00
23677;BME280;31493;49.058;12.190;2023-03-03T02:57:57;96088.22;;;-0.30;100.00
23677;BME280;31493;49.058;12.190;2023-03-03T03:00:26;96084.53;;;-0.18;100.00
23677;BME280;31493;49.058;12.190;2023-03-03T03:02:53;96091.44;;;-0.23;99.43
23677;BME280;31493;49.058;12.190;2023-03-03T03:05:20;96092.22;;;-0.21;99.62
23677;BME280;31493;49.058;12.190;2023-03-03T03:07:47;96097.72;;;-0.38;100.00
23677;BME280;31493;49.058;12.190;2023-03-03T03:10:14;96093.56;;;-0.40;100.00
23677;BME280;31493;49.058;12.190;2023-03-03T03:12:41;96086.84;;;-0.43;100.00
23677;BME280;31493;49.058;12.190;2023-03-03T03:15:08;96086.28;;;-0.54;100.00
23677;BME280;31493;49.058;12.190;2023-03-03T03:17:37;96082.91;;;-0.56;100.00
23677;BME280;31493;49.058;12.190;2023-03-03T03:20:05;96089.41;;;-0.43;100.00
23677;BME280;31493;49.058;12.190;2023-03-03T03:22:32;96082.72;;;-0.47;100.00
23677;BME280;31493;49.058;12.190;2023-03-03T03:24:59;96084.91;;;-0.33;100.00
23677;BME280;31493;49.058;12.190;2023-03-03T03:27:26;96079.06;;;-0.37;100.00
23677;BME280;31493;49.058;12.190;2023-03-03T03:29:53;96086.13;;;-0.49;100.00
23677;BME280;31493;49.058;12.190;2023-03-03T03:32:20;96077.81;;;-0.55;100.00
23677;BME280;31493;49.058;12.190;2023-03-03T03:34:49;96080.91;;;-0.43;100.00
23677;BME280;31493;49.058;12.190;2023-03-03T03:37:16;96078.09;;;-0.33;100.00
23677;BME280;31493;49.058;12.190;2023-03-03T03:39:43;96084.31;;;-0.44;100.00
23677;BME280;31493;49.058;12.190;2023-03-03T03:42:10;96080.47;;;-0.59;100.00
23677;BME280;31493;49.058;12.190;2023-03-03T03:44:37;96073.09;;;-0.70;100.00
23677;BME280;31493;49.058;12.190;2023-03-03T03:47:04;96077.88;;;-0.58;100.00
23677;BME280;31493;49.058;12.190;2023-03-03T03:49:31;96088.53;;;-0.43;100.00
23677;BME280;31493;49.058;12.190;2023-03-03T03:51:59;96076.88;;;-0.52;100.00
23677;BME280;31493;49.058;12.190;2023-03-03T03:54:27;96083.38;;;-0.40;100.00
23677;BME280;31493;49.058;12.190;2023-03-03T03:56:54;96087.69;;;-0.44;100.00
23677;BME280;31493;49.058;12.190;2023-03-03T03:59:21;96085.25;;;-0.47;100.00
23677;BME280;31493;49.058;12.190;2023-03-03T04:01:48;96088.38;;;-0.37;100.00
23677;BME280;31493;49.058;12.190;2023-03-03T04:04:15;96082.03;;;-0.53;99.89
23677;BME280;31493;49.058;12.190;2023-03-03T04:06:42;96107.56;;;-0.58;100.00
23677;BME280;31493;49.058;12.190;2023-03-03T04:09:11;96094.53;;;-0.46;100.00
23677;BME280;31493;49.058;12.190;2023-03-03T04:11:38;96093.66;;;-0.45;100.00
23677;BME280;31493;49.058;12.190;2023-03-03T04:14:05;96105.81;;;-0.56;99.83
23677;BME280;31493;49.058;12.190;2023-03-03T04:16:32;96095.72;;;-0.59;100.00
23677;BME280;31493;49.058;12.190;2023-03-03T04:18:59;96101.72;;;-0.63;100.00
23677;BME280;31493;49.058;12.190;2023-03-03T04:21:26;96109.44;;;-0.66;100.00
23677;BME280;31493;49.058;12.190;2023-03-03T04:23:53;96098.75;;;-0.81;100.00
23677;BME280;31493;49.058;12.190;2023-03-03T04:26:22;96094.53;;;-0.82;100.00
23677;BME280;31493;49.058;12.190;2023-03-03T04:28:49;96097.22;;;-0.88;100.00
23677;BME280;31493;49.058;12.190;2023-03-03T04:31:16;96107.47;;;-0.92;100.00
23677;BME280;31493;49.058;12.190;2023-03-03T04:33:45;96097.41;;;-0.95;100.00
23677;BME280;31493;49.058;12.190;2023-03-03T04:36:12;96106.78;;;-0.97;100.00
23677;BME280;31493;49.058;12.190;2023-03-03T04:38:39;96097.41;;;-0.95;100.00
23677;BME280;31493;49.058;12.190;2023-03-03T04:41:06;96094.94;;;-1.00;100.00
23677;BME280;31493;49.058;12.190;2023-03-03T04:43:34;96096.66;;;-1.00;100.00
23677;BME280;31493;49.058;12.190;2023-03-03T04:46:01;96097.50;;;-1.00;100.00
23677;BME280;31493;49.058;12.190;2023-03-03T04:48:28;96101.66;;;-0.96;100.00
23677;BME280;31493;49.058;12.190;2023-03-03T04:50:55;96097.44;;;-0.97;100.00
23677;BME280;31493;49.058;12.190;2023-03-03T04:53:23;96110.09;;;-0.95;100.00
23677;BME280;31493;49.058;12.190;2023-03-03T04:55:50;96110.09;;;-0.95;100.00
23677;BME280;31493;49.058;12.190;2023-03-03T04:58:17;96105.94;;;-0.98;100.00
23677;BME280;31493;49.058;12.190;2023-03-03T05:00:46;96118.66;;;-0.98;100.00
23677;BME280;31493;49.058;12.190;2023-03-03T05:03:13;96120.88;;;-0.84;100.00
23677;BME280;31493;49.058;12.190;2023-03-03T05:05:40;96113.56;;;-0.99;100.00
23677;BME280;31493;49.058;12.190;2023-03-03T05:08:07;96132.19;;;-0.99;100.00
23677;BME280;31493;49.058;12.190;2023-03-03T05:10:34;96113.56;;;-0.98;100.00
23677;BME280;31493;49.058;12.190;2023-03-03T05:13:01;96112.81;;;-1.04;100.00
23677;BME280;31493;49.058;12.190;2023-03-03T05:15:29;96114.44;;;-1.00;100.00
23677;BME280;31493;49.058;12.190;2023-03-03T05:17:58;96123.69;;;-0.96;100.00
23677;BME280;31493;49.058;12.190;2023-03-03T05:20:25;96119.41;;;-0.94;100.00
23677;BME280;31493;49.058;12.190;2023-03-03T05:22:53;96118.59;;;-0.96;100.00
23677;BME280;31493;49.058;12.190;2023-03-03T05:25:20;96119.53;;;-1.00;100.00
23677;BME280;31493;49.058;12.190;2023-03-03T05:27:47;96114.44;;;-1.00;100.00
23677;BME280;31493;49.058;12.190;2023-03-03T05:30:14;96119.47;;;-0.99;100.00
23677;BME280;31493;49.058;12.190;2023-03-03T05:32:41;96131.22;;;-0.93;100.00
23677;BME280;31493;49.058;12.190;2023-03-03T05:35:10;96124.44;;;-0.91;100.00
23677;BME280;31493;49.058;12.190;2023-03-03T05:37:37;96135.56;;;-0.98;100.00
23677;BME280;31493;49.058;12.190;2023-03-03T05:40:08;96135.56;;;-0.97;100.00
23677;BME280;31493;49.058;12.190;2023-03-03T05:42:35;96135.69;;;-1.04;100.00
23677;BME280;31493;49.058;12.190;2023-03-03T05:45:03;96129.78;;;-1.03;100.00
23677;BME280;31493;49.058;12.190;2023-03-03T05:47:30;96136.38;;;-0.96;100.00
23677;BME280;31493;49.058;12.190;2023-03-03T05:49:57;96125.41;;;-0.98;100.00
23677;BME280;31493;49.058;12.190;2023-03-03T05:52:27;96130.63;;;-1.04;100.00
23677;BME280;31493;49.058;12.190;2023-03-03T05:54:54;96145.88;;;-1.04;100.00
23677;BME280;31493;49.058;12.190;2023-03-03T05:57:21;96145.03;;;-1.05;100.00
23677;BME280;31493;49.058;12.190;2023-03-03T05:59:48;96155.31;;;-1.11;100.00
23677;BME280;31493;49.058;12.190;2023-03-03T06:02:15;96149.44;;;-1.13;100.00
23677;BME280;31493;49.058;12.190;2023-03-03T06:04:42;96142.63;;;-1.11;100.00
23677;BME280;31493;49.058;12.190;2023-03-03T06:07:09;96155.41;;;-1.14;100.00
23677;BME280;31493;49.058;12.190;2023-03-03T06:09:38;96160.41;;;-1.10;100.00
23677;BME280;31493;49.058;12.190;2023-03-03T06:12:05;96153.72;;;-1.15;100.00
23677;BME280;31493;49.058;12.190;2023-03-03T06:14:32;96158.72;;;-1.12;100.00
23677;BME280;31493;49.058;12.190;2023-03-03T06:16:59;96155.19;;;-1.05;100.00
23677;BME280;31493;49.058;12.190;2023-03-03T06:19:26;96156.22;;;-1.14;100.00
23677;BME280;31493;49.058;12.190;2023-03-03T06:21:53;96154.47;;;-1.10;100.00
23677;BME280;31493;49.058;12.190;2023-03-03T06:24:20;96152.84;;;-1.14;100.00
23677;BME280;31493;49.058;12.190;2023-03-03T06:26:51;96158.69;;;-1.09;100.00
23677;BME280;31493;49.058;12.190;2023-03-03T06:29:18;96167.28;;;-1.15;100.00
23677;BME280;31493;49.058;12.190;2023-03-03T06:31:45;96163.09;;;-1.19;100.00
23677;BME280;31493;49.058;12.190;2023-03-03T06:34:12;96163.78;;;-1.11;100.00
23677;BME280;31493;49.058;12.190;2023-03-03T06:36:39;96176.31;;;-1.01;100.00
23677;BME280;31493;49.058;12.190;2023-03-03T06:39:06;96173.81;;;-1.04;100.00
23677;BME280;31493;49.058;12.190;2023-03-03T06:41:34;96177.06;;;-0.96;100.00
23677;BME280;31493;49.058;12.190;2023-03-03T06:44:03;96183.84;;;-0.98;100.00
23677;BME280;31493;49.058;12.190;2023-03-03T06:46:30;96177.81;;;-0.91;100.00
23677;BME280;31493;49.058;12.190;2023-03-03T06:48:57;96180.56;;;-1.02;100.00
23677;BME280;31493;49.058;12.190;2023-03-03T06:51:26;96188.97;;;-1.00;100.00
23677;BME280;31493;49.058;12.190;2023-03-03T06:53:57;96192.13;;;-0.89;100.00
23677;BME280;31493;49.058;12.190;2023-03-03T06:56:27;96186.25;;;-0.91;100.00
23677;BME280;31493;49.058;12.190;2023-03-03T06:58:55;96192.75;;;-0.77;100.00
23677;BME280;31493;49.058;12.190;2023-03-03T07:01:27;96197.25;;;-0.90;100.00
23677;BME280;31493;49.058;12.190;2023-03-03T07:03:56;96192.94;;;-0.87;100.00
23677;BME280;31493;49.058;12.190;2023-03-03T07:06:24;96200.41;;;-0.81;100.00
23677;BME280;31493;49.058;12.190;2023-03-03T07:08:53;96210.59;;;-0.79;100.00
23677;BME280;31493;49.058;12.190;2023-03-03T07:11:23;96205.38;;;-0.73;100.00
23677;BME280;31493;49.058;12.190;2023-03-03T07:13:51;96208.88;;;-0.80;100.00
23677;BME280;31493;49.058;12.190;2023-03-03T07:16:25;96215.41;;;-0.67;100.00
23677;BME280;31493;49.058;12.190;2023-03-03T07:18:54;96213.00;;;-0.73;100.00
23677;BME280;31493;49.058;12.190;2023-03-03T07:21:25;96219.75;;;-0.72;100.00
23677;BME280;31493;49.058;12.190;2023-03-03T07:23:56;96235.00;;;-0.72;100.00
23677;BME280;31493;49.058;12.190;2023-03-03T07:26:26;96215.28;;;-0.62;100.00
23677;BME280;31493;49.058;12.190;2023-03-03T07:28:57;96219.88;;;-0.39;100.00
23677;BME280;31493;49.058;12.190;2023-03-03T07:31:29;96215.66;;;-0.40;99.33
23677;BME280;31493;49.058;12.190;2023-03-03T07:33:58;96216.34;;;-0.34;99.25
23677;BME280;31493;49.058;12.190;2023-03-03T07:36:28;96215.44;;;-0.31;98.80
23677;BME280;31493;49.058;12.190;2023-03-03T07:38:58;96227.19;;;-0.25;97.75
23677;BME280;31493;49.058;12.190;2023-03-03T07:41:26;96220.44;;;-0.27;97.54
23677;BME280;31493;49.058;12.190;2023-03-03T07:43:55;96210.94;;;-0.18;96.31
23677;BME280;31493;49.058;12.190;2023-03-03T07:46:29;96217.63;;;-0.16;96.92
23677;BME280;31493;49.058;12.190;2023-03-03T07:49:00;96227.63;;;-0.08;95.88
23677;BME280;31493;49.058;12.190;2023-03-03T07:51:31;96230.00;;;-0.01;95.98
23677;BME280;31493;49.058;12.190;2023-03-03T07:54:23;96240.59;;;0.17;96.03
23677;BME280;31493;49.058;12.190;2023-03-03T07:56:54;96233.41;;;-0.02;95.02
23677;BME280;31493;49.058;12.190;2023-03-03T07:59:24;96238.66;;;-0.08;95.55
23677;BME280;31493;49.058;12.190;2023-03-03T08:01:54;96239.38;;;-0.03;95.15
23677;BME280;31493;49.058;12.190;2023-03-03T08:04:27;96244.28;;;0.05;96.35
23677;BME280;31493;49.058;12.190;2023-03-03T08:06:56;96238.31;;;0.06;95.84
23677;BME280;31493;49.058;12.190;2023-03-03T08:09:36;96246.28;;;0.28;95.52
23677;BME280;31493;49.058;12.190;2023-03-03T08:12:36;96246.50;;;0.53;94.64
23677;BME280;31493;49.058;12.190;2023-03-03T08:15:15;96238.47;;;0.67;94.50
23677;BME280;31493;49.058;12.190;2023-03-03T08:17:44;96233.16;;;0.76;94.44
23677;BME280;31493;49.058;12.190;2023-03-03T08:23:17;96238.94;;;0.83;93.96
23677;BME280;31493;49.058;12.190;2023-03-03T08:25:45;96233.38;;;0.99;94.27
23677;BME280;31493;49.058;12.190;2023-03-03T08:28:13;96235.03;;;1.00;93.70
23677;BME280;31493;49.058;12.190;2023-03-03T08:30:40;96250.88;;;1.12;93.02
23677;BME280;31493;49.058;12.190;2023-03-03T08:33:09;96243.94;;;1.17;91.95
23677;BME280;31493;49.058;12.190;2023-03-03T08:35:36;96242.78;;;1.27;91.40
23677;BME280;31493;49.058;12.190;2023-03-03T08:38:03;96258.75;;;1.33;92.08
23677;BME280;31493;49.058;12.190;2023-03-03T08:40:31;96246.47;;;1.46;93.54
23677;BME280;31493;49.058;12.190;2023-03-03T08:42:59;96250.88;;;1.41;93.72
23677;BME280;31493;49.058;12.190;2023-03-03T08:45:27;96257.56;;;1.45;92.18
23677;BME280;31493;49.058;12.190;2023-03-03T08:47:54;96258.31;;;1.49;91.41
23677;BME280;31493;49.058;12.190;2023-03-03T08:50:23;96268.34;;;1.83;91.71
23677;BME280;31493;49.058;12.190;2023-03-03T08:52:50;96275.56;;;1.98;89.70
23677;BME280;31493;49.058;12.190;2023-03-03T08:55:17;96273.50;;;2.09;88.94
23677;BME280;31493;49.058;12.190;2023-03-03T08:57:44;96274.72;;;2.24;89.43
23677;BME280;31493;49.058;12.190;2023-03-03T09:00:14;96280.00;;;2.46;89.43
23677;BME280;31493;49.058;12.190;2023-03-03T09:02:42;96289.22;;;2.24;89.98
23677;BME280;31493;49.058;12.190;2023-03-03T09:05:09;96299.19;;;2.05;90.54
23677;BME280;31493;49.058;12.190;2023-03-03T09:07:38;96296.38;;;2.12;90.90
23677;BME280;31493;49.058;12.190;2023-03-03T09:10:06;96277.16;;;2.29;91.25
23677;BME280;31493;49.058;12.190;2023-03-03T09:12:35;96281.22;;;2.34;90.53
23677;BME280;31493;49.058;12.190;2023-03-03T09:15:12;96286.16;;;2.39;88.87
23677;BME280;31493;49.058;12.190;2023-03-03T09:17:40;96291.94;;;2.46;89.81
23677;BME280;31493;49.058;12.190;2023-03-03T09:20:22;96295.72;;;2.34;88.32
23677;BME280;31493;49.058;12.190;2023-03-03T09:22:51;96289.59;;;2.39;89.10
23677;BME280;31493;49.058;12.190;2023-03-03T09:25:22;96288.78;;;2.37;88.08
23677;BME280;31493;49.058;12.190;2023-03-03T09:27:53;96288.59;;;2.43;88.24
23677;BME280;31493;49.058;12.190;2023-03-03T09:30:34;96291.19;;;2.42;88.60
23677;BME280;31493;49.058;12.190;2023-03-03T09:33:18;96294.59;;;2.42;87.80
23677;BME280;31493;49.058;12.190;2023-03-03T09:35:49;96285.34;;;2.38;87.55
23677;BME280;31493;49.058;12.190;2023-03-03T09:38:25;96291.09;;;2.45;87.31
23677;BME280;31493;49.058;12.190;2023-03-03T09:41:04;96293.31;;;2.56;86.27
23677;BME280;31493;49.058;12.190;2023-03-03T09:43:36;96279.22;;;2.69;86.03
23677;BME280;31493;49.058;12.190;2023-03-03T09:46:16;96281.97;;;2.89;85.07
23677;BME280;31493;49.058;12.190;2023-03-03T09:48:55;96268.97;;;2.95;84.36
23677;BME280;31493;49.058;12.190;2023-03-03T09:51:40;96282.78;;;3.15;83.98
23677;BME280;31493;49.058;12.190;2023-03-03T09:54:25;96286.66;;;3.25;83.56
23677;BME280;31493;49.058;12.190;2023-03-03T09:57:04;96284.41;;;3.41;82.90
23677;BME280;31493;49.058;12.190;2023-03-03T09:59:58;96281.84;;;3.41;82.29
23677;BME280;31493;49.058;12.190;2023-03-03T10:02:37;96271.38;;;3.70;82.91
23677;BME280;31493;49.058;12.190;2023-03-03T10:05:25;96283.19;;;3.73;81.95
23677;BME280;31493;49.058;12.190;2023-03-03T10:08:05;96290.56;;;4.04;80.71
23677;BME280;31493;49.058;12.190;2023-03-03T10:10:49;96276.16;;;4.01;81.04
23677;BME280;31493;49.058;12.190;2023-03-03T10:13:34;96284.28;;;4.11;80.66
23677;BME280;31493;49.058;12.190;2023-03-03T10:16:31;96284.69;;;4.24;80.01
23677;BME280;31493;49.058;12.190;2023-03-03T10:19:10;96290.25;;;4.34;79.03
23677;BME280;31493;49.058;12.190;2023-03-03T10:21:47;96297.59;;;4.43;79.03
23677;BME280;31493;49.058;12.190;2023-03-03T10:24:23;96286.47;;;4.64;79.67
23677;BME280;31493;49.058;12.190;2023-03-03T10:27:06;96289.44;;;4.53;80.63
23677;BME280;31493;49.058;12.190;2023-03-03T10:29:45;96285.53;;;4.67;79.36
23677;BME280;31493;49.058;12.190;2023-03-03T10:32:39;96300.00;;;4.88;79.50
23677;BME280;31493;49.058;12.190;2023-03-03T10:35:24;96293.47;;;5.01;79.19
23677;BME280;31493;49.058;12.190;2023-03-03T10:38:08;96293.56;;;5.19;79.41
23677;BME280;31493;49.058;12.190;2023-03-03T10:40:42;96279.84;;;5.59;78.12
23677;BME280;31493;49.058;12.190;2023-03-03T10:43:23;96285.00;;;5.97;78.21
23677;BME280;31493;49.058;12.190;2023-03-03T10:46:08;96279.97;;;5.93;77.69
23677;BME280;31493;49.058;12.190;2023-03-03T10:48:51;96289.44;;;5.93;74.41
23677;BME280;31493;49.058;12.190;2023-03-03T10:51:27;96282.47;;;6.14;78.22
23677;BME280;31493;49.058;12.190;2023-03-03T10:54:08;96287.50;;;6.34;75.14
23677;BME280;31493;49.058;12.190;2023-03-03T10:56:48;96276.56;;;6.65;75.21
23677;BME280;31493;49.058;12.190;2023-03-03T10:59:30;96273.53;;;6.92;77.03
23677;BME280;31493;49.058;12.190;2023-03-03T11:02:03;96264.72;;;7.31;74.92
23677;BME280;31493;49.058;12.190;2023-03-03T11:05:00;96271.78;;;6.92;72.66
23677;BME280;31493;49.058;12.190;2023-03-03T11:07:34;96278.75;;;7.41;76.65
23677;BME280;31493;49.058;12.190;2023-03-03T11:10:23;96284.97;;;6.86;71.75
23677;BME280;31493;49.058;12.190;2023-03-03T11:13:00;96275.34;;;6.19;72.78
23677;BME280;31493;49.058;12.190;2023-03-03T11:15:48;96270.50;;;7.18;75.23
23677;BME280;31493;49.058;12.190;2023-03-03T11:18:24;96279.69;;;7.22;70.86
23677;BME280;31493;49.058;12.190;2023-03-03T11:21:01;96282.00;;;7.44;71.96
23677;BME280;31493;49.058;12.190;2023-03-03T11:24:04;96278.16;;;6.51;73.68
23677;BME280;31493;49.058;12.190;2023-03-03T11:26:57;96271.03;;;7.08;73.56
23677;BME280;31493;49.058;12.190;2023-03-03T11:29:38;96286.47;;;6.73;76.55
23677;BME280;31493;49.058;12.190;2023-03-03T11:32:20;96284.50;;;6.61;71.24
23677;BME280;31493;49.058;12.190;2023-03-03T11:34:59;96281.44;;;6.35;71.89
23677;BME280;31493;49.058;12.190;2023-03-03T11:37:38;96276.63;;;6.46;73.87
23677;BME280;31493;49.058;12.190;2023-03-03T11:40:12;96270.47;;;6.32;72.06
23677;BME280;31493;49.058;12.190;2023-03-03T11:42:51;96272.41;;;6.45;73.19
23677;BME280;31493;49.058;12.190;2023-03-03T11:45:21;96272.00;;;7.87;72.38
23677;BME280;31493;49.058;12.190;2023-03-03T11:47:57;96268.28;;;6.93;68.93
23677;BME280;31493;49.058;12.190;2023-03-03T11:50:30;96266.81;;;6.89;70.50
23677;BME280;31493;49.058;12.190;2023-03-03T11:53:10;96257.94;;;7.61;71.33
23677;BME280;31493;49.058;12.190;2023-03-03T11:55:47;96255.00;;;6.85;70.23
23677;BME280;31493;49.058;12.190;2023-03-03T11:58:19;96261.47;;;7.10;73.84
23677;BME280;31493;49.058;12.190;2023-03-03T12:00:51;96261.66;;;6.89;69.85
23677;BME280;31493;49.058;12.190;2023-03-03T12:03:25;96252.00;;;7.10;69.45
23677;BME280;31493;49.058;12.190;2023-03-03T12:06:01;96261.34;;;7.13;68.80
23677;BME280;31493;49.058;12.190;2023-03-03T12:08:40;96250.63;;;7.20;70.04
23677;BME280;31493;49.058;12.190;2023-03-03T12:11:19;96253.41;;;7.33;68.30
23677;BME280;31493;49.058;12.190;2023-03-03T12:13:54;96246.53;;;7.16;68.78
23677;BME280;31493;49.058;12.190;2023-03-03T12:16:34;96242.53;;;7.44;68.55
23677;BME280;31493;49.058;12.190;2023-03-03T12:19:33;96244.47;;;7.56;68.76
23677;BME280;31493;49.058;12.190;2023-03-03T12:22:10;96244.75;;;7.34;68.62
23677;BME280;31493;49.058;12.190;2023-03-03T12:24:49;96240.34;;;7.36;68.23
23677;BME280;31493;49.058;12.190;2023-03-03T12:27:28;96240.44;;;8.45;69.85
23677;BME280;31493;49.058;12.190;2023-03-03T12:30:05;96239.50;;;8.76;65.62
23677;BME280;31493;49.058;12.190;2023-03-03T12:33:02;96226.53;;;8.32;67.79
23677;BME280;31493;49.058;12.190;2023-03-03T12:35:37;96226.66;;;9.62;66.27
23677;BME280;31493;49.058;12.190;2023-03-03T12:38:10;96220.63;;;9.76;63.82
23677;BME280;31493;49.058;12.190;2023-03-03T12:40:45;96226.13;;;8.70;62.78
23677;BME280;31493;49.058;12.190;2023-03-03T12:43:24;96212.34;;;9.56;63.88
23677;BME280;31493;49.058;12.190;2023-03-03T12:46:04;96212.56;;;9.94;60.84
23677;BME280;31493;49.058;12.190;2023-03-03T12:48:39;96211.44;;;9.99;59.51
23677;BME280;31493;49.058;12.190;2023-03-03T12:51:16;96212.50;;;10.09;61.42
23677;BME280;31493;49.058;12.190;2023-03-03T12:53:56;96198.97;;;10.18;61.11
23677;BME280;31493;49.058;12.190;2023-03-03T12:56:32;96214.81;;;8.72;60.98
23677;BME280;31493;49.058;12.190;2023-03-03T12:59:03;96215.66;;;8.87;63.33
23677;BME280;31493;49.058;12.190;2023-03-03T13:01:48;96212.63;;;8.50;64.30
23677;BME280;31493;49.058;12.190;2023-03-03T13:04:31;96207.00;;;8.28;64.46
23677;BME280;31493;49.058;12.190;2023-03-03T13:07:06;96211.28;;;8.13;63.93
23677;BME280;31493;49.058;12.190;2023-03-03T13:09:49;96202.81;;;8.11;64.76
23677;BME280;31493;49.058;12.190;2023-03-03T13:12:29;96214.19;;;8.53;64.79
23677;BME280;31493;49.058;12.190;2023-03-03T13:15:05;96196.94;;;8.39;65.57
23677;BME280;31493;49.058;12.190;2023-03-03T13:17:39;96205.81;;;8.33;62.05
23677;BME280;31493;49.058;12.190;2023-03-03T13:20:19;96193.72;;;9.37;64.66